sensor_id;sensor_type;location;lat;lon;timestamp;temperature;humidity
19342;DHT22;9807;48.258;12.690;2023-02-28T00:00:17;5.10;99.90
19342;DHT22;9807;48.258;12.690;2023-02-28T00:02:44;4.90;99.90
19342;DHT22;9807;48.258;12.690;2023-02-28T00:05:11;4.80;99.90
19342;DHT22;9807;48.258;12.690;2023-02-28T00:07:40;5.00;99.90
19342;DHT22;9807;48.258;12.690;2023-02-28T00:10:10;5.10;99.90
19342;DHT22;9807;48.258;12.690;2023-02-28T00:12:37;5.10;99.90
19342;DHT22;9807;48.258;12.690;2023-02-28T00:15:07;5.10;99.90
19342;DHT22;9807;48.258;12.690;2023-02-28T00:17:33;5.10;99.90
19342;DHT22;9807;48.258;12.690;2023-02-28T00:19:59;5.10;99.90
19342;DHT22;9807;48.258;12.690;2023-02-28T00:22:41;5.10;99.90
19342;DHT22;9807;48.258;12.690;2023-02-28T00:25:08;4.90;99.90
19342;DHT22;9807;48.258;12.690;2023-02-28T00:27:41;5.00;99.90
19342;DHT22;9807;48.258;12.690;2023-02-28T00:30:20;4.90;99.90
19342;DHT22;9807;48.258;12.690;2023-02-28T00:32:47;4.90;99.90
19342;DHT22;9807;48.258;12.690;2023-02-28T00:35:13;4.80;99.90
19342;DHT22;9807;48.258;12.690;2023-02-28T00:37:39;4.70;99.90
19342;DHT22;9807;48.258;12.690;2023-02-28T00:40:05;4.90;99.90
19342;DHT22;9807;48.258;12.690;2023-02-28T00:42:32;5.00;99.90
19342;DHT22;9807;48.258;12.690;2023-02-28T00:44:58;4.90;99.90
19342;DHT22;9807;48.258;12.690;2023-02-28T00:47:24;4.70;99.90
19342;DHT22;9807;48.258;12.690;2023-02-28T00:49:50;4.80;99.90
19342;DHT22;9807;48.258;12.690;2023-02-28T00:52:16;4.80;99.90
19342;DHT22;9807;48.258;12.690;2023-02-28T00:54:42;4.80;99.90
19342;DHT22;9807;48.258;12.690;2023-02-28T00:57:07;4.80;99.90
19342;DHT22;9807;48.258;12.690;2023-02-28T00:59:33;4.80;99.90
19342;DHT22;9807;48.258;12.690;2023-02-28T01:01:59;5.00;99.90
19342;DHT22;9807;48.258;12.690;2023-02-28T01:04:25;4.70;99.90
19342;DHT22;9807;48.258;12.690;2023-02-28T01:06:53;4.90;99.90
19342;DHT22;9807;48.258;12.690;2023-02-28T01:09:21;4.90;99.90
19342;DHT22;9807;48.258;12.690;2023-02-28T01:11:47;4.80;99.90
19342;DHT22;9807;48.258;12.690;2023-02-28T01:14:18;4.70;99.90
19342;DHT22;9807;48.258;12.690;2023-02-28T01:16:44;4.70;99.90
19342;DHT22;9807;48.258;12.690;2023-02-28T01:19:10;4.70;99.90
19342;DHT22;9807;48.258;12.690;2023-02-28T01:21:39;4.70;99.90
19342;DHT22;9807;48.258;12.690;2023-02-28T01:24:05;4.90;99.90
19342;DHT22;9807;48.258;12.690;2023-02-28T01:26:31;4.70;99.90
19342;DHT22;9807;48.258;12.690;2023-02-28T01:28:57;4.50;99.90
19342;DHT22;9807;48.258;12.690;2023-02-28T01:31:24;4.60;99.90
19342;DHT22;9807;48.258;12.690;2023-02-28T01:33:50;4.50;99.90
19342;DHT22;9807;48.258;12.690;2023-02-28T01:36:21;4.60;99.90
19342;DHT22;9807;48.258;12.690;2023-02-28T01:38:47;4.60;99.90
19342;DHT22;9807;48.258;12.690;2023-02-28T01:41:19;4.80;99.90
19342;DHT22;9807;48.258;12.690;2023-02-28T01:46:15;4.80;99.90
19342;DHT22;9807;48.258;12.690;2023-02-28T01:49:01;4.80;99.90
19342;DHT22;9807;48.258;12.690;2023-02-28T01:51:44;4.80;99.90
19342;DHT22;9807;48.258;12.690;2023-02-28T01:54:15;4.80;99.90
19342;DHT22;9807;48.258;12.690;2023-02-28T01:57:06;4.80;99.90
19342;DHT22;9807;48.258;12.690;2023-02-28T01:59:43;4.80;99.90
19342;DHT22;9807;48.258;12.690;2023-02-28T02:02:21;4.70;99.90
19342;DHT22;9807;48.258;12.690;2023-02-28T02:04:59;4.60;99.90
19342;DHT22;9807;48.258;12.690;2023-02-28T02:07:33;4.50;99.90
19342;DHT22;9807;48.258;12.690;2023-02-28T02:10:04;4.60;99.90
19342;DHT22;9807;48.258;12.690;2023-02-28T02:15:13;4.60;99.90
19342;DHT22;9807;48.258;12.690;2023-02-28T02:17:53;4.60;99.90
19342;DHT22;9807;48.258;12.690;2023-02-28T02:31:28;4.70;99.90
19342;DHT22;9807;48.258;12.690;2023-02-28T02:42:14;4.70;99.90
19342;DHT22;9807;48.258;12.690;2023-02-28T02:44:47;4.70;99.90
19342;DHT22;9807;48.258;12.690;2023-02-28T02:47:17;4.70;99.90
19342;DHT22;9807;48.258;12.690;2023-02-28T02:49:48;4.60;99.90
19342;DHT22;9807;48.258;12.690;2023-02-28T02:52:22;4.80;99.90
19342;DHT22;9807;48.258;12.690;2023-02-28T02:54:51;4.60;99.90
19342;DHT22;9807;48.258;12.690;2023-02-28T03:00:19;4.60;99.90
19342;DHT22;9807;48.258;12.690;2023-02-28T03:02:47;4.40;99.90
19342;DHT22;9807;48.258;12.690;2023-02-28T03:05:49;4.50;99.90
19342;DHT22;9807;48.258;12.690;2023-02-28T03:08:20;4.60;99.90
19342;DHT22;9807;48.258;12.690;2023-02-28T03:10:51;4.30;99.90
19342;DHT22;9807;48.258;12.690;2023-02-28T03:13:39;4.40;99.90
19342;DHT22;9807;48.258;12.690;2023-02-28T03:19:05;4.60;99.90
19342;DHT22;9807;48.258;12.690;2023-02-28T03:21:56;4.60;99.90
19342;DHT22;9807;48.258;12.690;2023-02-28T03:27:21;4.40;99.90
19342;DHT22;9807;48.258;12.690;2023-02-28T03:30:09;4.60;99.90
19342;DHT22;9807;48.258;12.690;2023-02-28T03:32:53;4.60;99.90
19342;DHT22;9807;48.258;12.690;2023-02-28T03:35:27;4.60;99.90
19342;DHT22;9807;48.258;12.690;2023-02-28T03:38:21;4.50;99.90
19342;DHT22;9807;48.258;12.690;2023-02-28T03:40:56;4.50;99.90
19342;DHT22;9807;48.258;12.690;2023-02-28T03:43:29;4.60;99.90
19342;DHT22;9807;48.258;12.690;2023-02-28T03:45:59;4.30;99.90
19342;DHT22;9807;48.258;12.690;2023-02-28T03:48:44;4.50;99.90
19342;DHT22;9807;48.258;12.690;2023-02-28T03:51:15;4.40;99.90
19342;DHT22;9807;48.258;12.690;2023-02-28T03:54:05;4.60;99.90
19342;DHT22;9807;48.258;12.690;2023-02-28T03:56:43;4.40;99.90
19342;DHT22;9807;48.258;12.690;2023-02-28T03:59:48;4.50;99.90
19342;DHT22;9807;48.258;12.690;2023-02-28T04:02:16;4.20;99.90
19342;DHT22;9807;48.258;12.690;2023-02-28T04:04:44;4.20;99.90
19342;DHT22;9807;48.258;12.690;2023-02-28T04:07:14;4.20;99.90
19342;DHT22;9807;48.258;12.690;2023-02-28T04:09:40;4.20;99.90
19342;DHT22;9807;48.258;12.690;2023-02-28T04:12:07;4.30;99.90
19342;DHT22;9807;48.258;12.690;2023-02-28T04:14:32;4.30;99.90
19342;DHT22;9807;48.258;12.690;2023-02-28T04:17:01;4.20;99.90
19342;DHT22;9807;48.258;12.690;2023-02-28T04:19:27;4.30;99.90
19342;DHT22;9807;48.258;12.690;2023-02-28T04:21:53;4.20;99.90
19342;DHT22;9807;48.258;12.690;2023-02-28T04:24:27;4.10;99.90
19342;DHT22;9807;48.258;12.690;2023-02-28T04:26:55;4.20;99.90
19342;DHT22;9807;48.258;12.690;2023-02-28T04:29:24;4.10;99.90
19342;DHT22;9807;48.258;12.690;2023-02-28T04:31:53;4.20;99.90
19342;DHT22;9807;48.258;12.690;2023-02-28T04:34:20;4.00;99.90
19342;DHT22;9807;48.258;12.690;2023-02-28T04:36:47;4.20;99.90
19342;DHT22;9807;48.258;12.690;2023-02-28T04:39:19;4.30;99.90
19342;DHT22;9807;48.258;12.690;2023-02-28T04:41:46;4.40;99.90
19342;DHT22;9807;48.258;12.690;2023-02-28T04:44:14;4.30;99.90
19342;DHT22;9807;48.258;12.690;2023-02-28T04:46:41;4.20;99.90
19342;DHT22;9807;48.258;12.690;2023-02-28T04:49:08;4.30;99.90
19342;DHT22;9807;48.258;12.690;2023-02-28T04:51:36;4.20;99.90
19342;DHT22;9807;48.258;12.690;2023-02-28T04:54:02;4.30;99.90
19342;DHT22;9807;48.258;12.690;2023-02-28T04:56:30;4.20;99.90
19342;DHT22;9807;48.258;12.690;2023-02-28T04:58:59;4.40;99.90
19342;DHT22;9807;48.258;12.690;2023-02-28T05:01:32;4.50;99.90
19342;DHT22;9807;48.258;12.690;2023-02-28T05:04:02;4.30;99.90
19342;DHT22;9807;48.258;12.690;2023-02-28T05:06:31;4.30;99.90
19342;DHT22;9807;48.258;12.690;2023-02-28T05:08:57;4.50;99.90
19342;DHT22;9807;48.258;12.690;2023-02-28T05:11:29;4.40;99.90
19342;DHT22;9807;48.258;12.690;2023-02-28T05:14:10;4.50;99.90
19342;DHT22;9807;48.258;12.690;2023-02-28T05:16:39;4.40;99.90
19342;DHT22;9807;48.258;12.690;2023-02-28T05:19:05;4.60;99.90
19342;DHT22;9807;48.258;12.690;2023-02-28T05:21:33;4.70;99.90
19342;DHT22;9807;48.258;12.690;2023-02-28T05:24:05;4.70;99.90
19342;DHT22;9807;48.258;12.690;2023-02-28T05:26:37;4.40;99.90
19342;DHT22;9807;48.258;12.690;2023-02-28T05:29:03;4.50;99.90
19342;DHT22;9807;48.258;12.690;2023-02-28T05:31:30;4.50;99.90
19342;DHT22;9807;48.258;12.690;2023-02-28T05:33:59;4.40;99.90
19342;DHT22;9807;48.258;12.690;2023-02-28T05:36:28;4.50;99.90
19342;DHT22;9807;48.258;12.690;2023-02-28T05:38:54;4.60;99.90
19342;DHT22;9807;48.258;12.690;2023-02-28T05:41:23;4.40;99.90
19342;DHT22;9807;48.258;12.690;2023-02-28T05:43:49;4.50;99.90
19342;DHT22;9807;48.258;12.690;2023-02-28T05:46:17;4.70;99.90
19342;DHT22;9807;48.258;12.690;2023-02-28T05:48:47;4.60;99.90
19342;DHT22;9807;48.258;12.690;2023-02-28T05:51:13;4.10;99.90
19342;DHT22;9807;48.258;12.690;2023-02-28T05:53:39;4.40;99.90
19342;DHT22;9807;48.258;12.690;2023-02-28T05:56:05;4.40;99.90
19342;DHT22;9807;48.258;12.690;2023-02-28T05:58:37;4.40;99.90
19342;DHT22;9807;48.258;12.690;2023-02-28T06:01:24;4.40;99.90
19342;DHT22;9807;48.258;12.690;2023-02-28T06:04:01;4.50;99.90
19342;DHT22;9807;48.258;12.690;2023-02-28T06:06:31;4.60;99.90
19342;DHT22;9807;48.258;12.690;2023-02-28T06:08:57;4.40;99.90
19342;DHT22;9807;48.258;12.690;2023-02-28T06:11:23;4.60;99.90
19342;DHT22;9807;48.258;12.690;2023-02-28T06:14:01;4.50;99.90
19342;DHT22;9807;48.258;12.690;2023-02-28T06:16:32;4.60;99.90
19342;DHT22;9807;48.258;12.690;2023-02-28T06:19:00;4.70;99.90
19342;DHT22;9807;48.258;12.690;2023-02-28T06:21:29;4.50;99.90
19342;DHT22;9807;48.258;12.690;2023-02-28T06:23:55;4.50;99.90
19342;DHT22;9807;48.258;12.690;2023-02-28T06:26:22;4.50;99.90
19342;DHT22;9807;48.258;12.690;2023-02-28T06:28:50;4.40;99.90
19342;DHT22;9807;48.258;12.690;2023-02-28T06:31:17;4.30;99.90
19342;DHT22;9807;48.258;12.690;2023-02-28T06:33:44;4.60;99.90
19342;DHT22;9807;48.258;12.690;2023-02-28T06:36:11;4.60;99.90
19342;DHT22;9807;48.258;12.690;2023-02-28T06:38:41;4.60;99.90
19342;DHT22;9807;48.258;12.690;2023-02-28T06:41:07;4.80;99.90
19342;DHT22;9807;48.258;12.690;2023-02-28T06:43:36;4.80;99.90
19342;DHT22;9807;48.258;12.690;2023-02-28T06:46:05;4.70;99.90
19342;DHT22;9807;48.258;12.690;2023-02-28T06:48:31;4.60;99.90
19342;DHT22;9807;48.258;12.690;2023-02-28T06:51:11;4.90;99.90
19342;DHT22;9807;48.258;12.690;2023-02-28T06:53:42;4.80;99.90
19342;DHT22;9807;48.258;12.690;2023-02-28T06:56:10;5.00;99.90
19342;DHT22;9807;48.258;12.690;2023-02-28T06:58:37;5.10;99.90
19342;DHT22;9807;48.258;12.690;2023-02-28T07:01:05;5.10;99.90
19342;DHT22;9807;48.258;12.690;2023-02-28T07:03:35;5.00;99.90
19342;DHT22;9807;48.258;12.690;2023-02-28T07:06:05;5.00;99.90
19342;DHT22;9807;48.258;12.690;2023-02-28T07:08:30;5.00;99.90
19342;DHT22;9807;48.258;12.690;2023-02-28T07:10:57;5.10;99.90
19342;DHT22;9807;48.258;12.690;2023-02-28T07:13:24;5.20;99.90
19342;DHT22;9807;48.258;12.690;2023-02-28T07:18:20;5.20;99.90
19342;DHT22;9807;48.258;12.690;2023-02-28T07:20:45;4.90;99.90
19342;DHT22;9807;48.258;12.690;2023-02-28T07:23:11;5.00;99.90
19342;DHT22;9807;48.258;12.690;2023-02-28T07:25:40;5.20;99.90
19342;DHT22;9807;48.258;12.690;2023-02-28T07:28:06;5.50;99.90
19342;DHT22;9807;48.258;12.690;2023-02-28T07:30:32;5.60;99.90
19342;DHT22;9807;48.258;12.690;2023-02-28T07:32:57;5.90;99.90
19342;DHT22;9807;48.258;12.690;2023-02-28T07:35:23;5.90;99.90
19342;DHT22;9807;48.258;12.690;2023-02-28T07:37:49;5.60;99.90
19342;DHT22;9807;48.258;12.690;2023-02-28T07:40:15;5.90;99.90
19342;DHT22;9807;48.258;12.690;2023-02-28T07:42:43;5.90;99.90
19342;DHT22;9807;48.258;12.690;2023-02-28T07:45:11;5.30;99.90
19342;DHT22;9807;48.258;12.690;2023-02-28T07:47:38;5.40;99.90
19342;DHT22;9807;48.258;12.690;2023-02-28T07:50:05;5.70;99.90
19342;DHT22;9807;48.258;12.690;2023-02-28T07:52:32;5.80;99.90
19342;DHT22;9807;48.258;12.690;2023-02-28T07:54:58;5.70;99.90
19342;DHT22;9807;48.258;12.690;2023-02-28T07:57:23;5.70;99.90
19342;DHT22;9807;48.258;12.690;2023-02-28T08:00:02;5.90;99.90
19342;DHT22;9807;48.258;12.690;2023-02-28T08:02:28;6.00;99.90
19342;DHT22;9807;48.258;12.690;2023-02-28T08:04:54;6.00;99.90
19342;DHT22;9807;48.258;12.690;2023-02-28T08:07:27;6.00;99.90
19342;DHT22;9807;48.258;12.690;2023-02-28T08:09:53;6.00;99.90
19342;DHT22;9807;48.258;12.690;2023-02-28T08:12:19;6.20;99.90
19342;DHT22;9807;48.258;12.690;2023-02-28T08:14:48;6.30;99.90
19342;DHT22;9807;48.258;12.690;2023-02-28T08:17:16;6.10;99.90
19342;DHT22;9807;48.258;12.690;2023-02-28T08:19:45;6.30;99.90
19342;DHT22;9807;48.258;12.690;2023-02-28T08:22:11;5.90;99.90
19342;DHT22;9807;48.258;12.690;2023-02-28T08:24:39;6.10;99.90
19342;DHT22;9807;48.258;12.690;2023-02-28T08:27:07;6.30;99.90
19342;DHT22;9807;48.258;12.690;2023-02-28T08:29:32;6.10;99.90
19342;DHT22;9807;48.258;12.690;2023-02-28T08:31:58;6.10;99.90
19342;DHT22;9807;48.258;12.690;2023-02-28T08:34:24;6.20;99.90
19342;DHT22;9807;48.258;12.690;2023-02-28T08:36:50;6.30;99.90
19342;DHT22;9807;48.258;12.690;2023-02-28T08:39:15;6.30;99.90
19342;DHT22;9807;48.258;12.690;2023-02-28T08:41:42;6.30;99.90
19342;DHT22;9807;48.258;12.690;2023-02-28T08:44:08;6.30;99.90
19342;DHT22;9807;48.258;12.690;2023-02-28T08:46:37;6.30;99.90
19342;DHT22;9807;48.258;12.690;2023-02-28T08:49:06;6.10;99.90
19342;DHT22;9807;48.258;12.690;2023-02-28T08:51:36;6.30;99.90
19342;DHT22;9807;48.258;12.690;2023-02-28T08:54:02;6.30;99.90
19342;DHT22;9807;48.258;12.690;2023-02-28T08:56:28;6.20;99.90
19342;DHT22;9807;48.258;12.690;2023-02-28T08:58:55;6.30;99.90
19342;DHT22;9807;48.258;12.690;2023-02-28T09:01:26;6.20;99.90
19342;DHT22;9807;48.258;12.690;2023-02-28T09:03:55;6.40;99.90
19342;DHT22;9807;48.258;12.690;2023-02-28T09:06:23;6.30;99.90
19342;DHT22;9807;48.258;12.690;2023-02-28T09:08:50;6.30;99.90
19342;DHT22;9807;48.258;12.690;2023-02-28T09:11:16;6.30;99.90
19342;DHT22;9807;48.258;12.690;2023-02-28T09:13:42;6.30;99.90
19342;DHT22;9807;48.258;12.690;2023-02-28T09:16:12;6.00;99.90
19342;DHT22;9807;48.258;12.690;2023-02-28T09:18:38;6.10;99.90
19342;DHT22;9807;48.258;12.690;2023-02-28T09:21:09;6.20;99.90
19342;DHT22;9807;48.258;12.690;2023-02-28T09:23:35;6.30;99.90
19342;DHT22;9807;48.258;12.690;2023-02-28T09:26:04;6.30;99.90
19342;DHT22;9807;48.258;12.690;2023-02-28T09:28:30;6.20;99.90
19342;DHT22;9807;48.258;12.690;2023-02-28T09:30:56;6.40;99.90
19342;DHT22;9807;48.258;12.690;2023-02-28T09:33:25;6.40;99.90
19342;DHT22;9807;48.258;12.690;2023-02-28T09:35:56;6.20;99.90
19342;DHT22;9807;48.258;12.690;2023-02-28T09:38:22;6.20;99.90
19342;DHT22;9807;48.258;12.690;2023-02-28T09:41:08;6.40;99.90
19342;DHT22;9807;48.258;12.690;2023-02-28T09:43:37;6.20;99.90
19342;DHT22;9807;48.258;12.690;2023-02-28T09:48:44;6.00;99.90
19342;DHT22;9807;48.258;12.690;2023-02-28T09:51:33;6.10;99.90
19342;DHT22;9807;48.258;12.690;2023-02-28T09:54:01;6.20;99.90
19342;DHT22;9807;48.258;12.690;2023-02-28T09:56:43;6.20;99.90
19342;DHT22;9807;48.258;12.690;2023-02-28T10:07:23;6.40;99.90
19342;DHT22;9807;48.258;12.690;2023-02-28T10:09:55;6.40;99.90
19342;DHT22;9807;48.258;12.690;2023-02-28T10:12:23;6.40;99.90
19342;DHT22;9807;48.258;12.690;2023-02-28T10:14:52;6.50;99.90
19342;DHT22;9807;48.258;12.690;2023-02-28T10:17:25;6.30;99.90
19342;DHT22;9807;48.258;12.690;2023-02-28T10:20:10;6.60;99.90
19342;DHT22;9807;48.258;12.690;2023-02-28T10:22:56;6.70;99.90
19342;DHT22;9807;48.258;12.690;2023-02-28T10:25:25;6.60;99.90
19342;DHT22;9807;48.258;12.690;2023-02-28T10:30:34;6.40;99.90
19342;DHT22;9807;48.258;12.690;2023-02-28T10:33:01;6.10;99.90
19342;DHT22;9807;48.258;12.690;2023-02-28T10:35:27;5.80;99.90
19342;DHT22;9807;48.258;12.690;2023-02-28T10:37:55;6.00;99.90
19342;DHT22;9807;48.258;12.690;2023-02-28T10:45:46;6.50;99.90
19342;DHT22;9807;48.258;12.690;2023-02-28T10:53:29;6.90;99.90
19342;DHT22;9807;48.258;12.690;2023-02-28T10:58:31;6.40;99.90
19342;DHT22;9807;48.258;12.690;2023-02-28T11:00:58;6.60;99.90
19342;DHT22;9807;48.258;12.690;2023-02-28T11:03:32;6.70;99.90
19342;DHT22;9807;48.258;12.690;2023-02-28T11:06:05;6.70;99.90
19342;DHT22;9807;48.258;12.690;2023-02-28T11:08:31;6.80;99.90
19342;DHT22;9807;48.258;12.690;2023-02-28T11:11:00;6.90;99.90
19342;DHT22;9807;48.258;12.690;2023-02-28T11:13:32;7.00;99.90
19342;DHT22;9807;48.258;12.690;2023-02-28T11:16:04;6.90;99.90
19342;DHT22;9807;48.258;12.690;2023-02-28T11:21:03;7.10;99.90
19342;DHT22;9807;48.258;12.690;2023-02-28T11:23:41;7.00;99.90
19342;DHT22;9807;48.258;12.690;2023-02-28T11:26:09;6.90;99.90
19342;DHT22;9807;48.258;12.690;2023-02-28T11:28:39;7.00;99.90
19342;DHT22;9807;48.258;12.690;2023-02-28T11:33:48;7.10;99.90
19342;DHT22;9807;48.258;12.690;2023-02-28T11:36:22;7.10;99.90
19342;DHT22;9807;48.258;12.690;2023-02-28T11:38:54;6.80;99.90
19342;DHT22;9807;48.258;12.690;2023-02-28T11:41:44;6.90;99.90
19342;DHT22;9807;48.258;12.690;2023-02-28T11:47:32;6.60;99.90
19342;DHT22;9807;48.258;12.690;2023-02-28T11:53:19;6.80;99.90
19342;DHT22;9807;48.258;12.690;2023-02-28T11:56:06;7.10;99.90
19342;DHT22;9807;48.258;12.690;2023-02-28T12:06:33;7.10;99.90
19342;DHT22;9807;48.258;12.690;2023-02-28T12:09:41;7.20;99.90
19342;DHT22;9807;48.258;12.690;2023-02-28T12:12:40;7.10;99.90
19342;DHT22;9807;48.258;12.690;2023-02-28T12:18:25;7.10;99.90
19342;DHT22;9807;48.258;12.690;2023-02-28T12:21:18;7.20;99.90
19342;DHT22;9807;48.258;12.690;2023-02-28T12:24:18;7.30;99.90
19342;DHT22;9807;48.258;12.690;2023-02-28T12:26:50;7.50;99.90
19342;DHT22;9807;48.258;12.690;2023-02-28T12:29:25;7.50;99.90
19342;DHT22;9807;48.258;12.690;2023-02-28T12:31:54;7.30;99.90
19342;DHT22;9807;48.258;12.690;2023-02-28T12:34:25;7.30;99.90
19342;DHT22;9807;48.258;12.690;2023-02-28T12:36:53;7.50;99.90
19342;DHT22;9807;48.258;12.690;2023-02-28T12:39:26;7.50;99.90
19342;DHT22;9807;48.258;12.690;2023-02-28T12:42:04;7.50;99.90
19342;DHT22;9807;48.258;12.690;2023-02-28T12:44:51;7.60;99.90
19342;DHT22;9807;48.258;12.690;2023-02-28T12:47:18;7.50;99.90
19342;DHT22;9807;48.258;12.690;2023-02-28T12:52:54;7.40;99.90
19342;DHT22;9807;48.258;12.690;2023-02-28T12:55:31;6.80;99.90
19342;DHT22;9807;48.258;12.690;2023-02-28T13:00:42;6.90;99.90
19342;DHT22;9807;48.258;12.690;2023-02-28T13:03:41;7.20;99.90
19342;DHT22;9807;48.258;12.690;2023-02-28T13:09:03;7.60;99.90
19342;DHT22;9807;48.258;12.690;2023-02-28T13:11:33;7.60;99.90
19342;DHT22;9807;48.258;12.690;2023-02-28T13:14:03;7.60;99.90
19342;DHT22;9807;48.258;12.690;2023-02-28T13:16:58;7.70;99.90
19342;DHT22;9807;48.258;12.690;2023-02-28T13:19:32;7.80;99.90
19342;DHT22;9807;48.258;12.690;2023-02-28T13:21:58;7.90;99.90
19342;DHT22;9807;48.258;12.690;2023-02-28T13:24:47;8.00;99.90
19342;DHT22;9807;48.258;12.690;2023-02-28T13:29:43;7.80;99.90
19342;DHT22;9807;48.258;12.690;2023-02-28T13:34:37;7.80;99.90
19342;DHT22;9807;48.258;12.690;2023-02-28T13:37:32;7.80;99.90
19342;DHT22;9807;48.258;12.690;2023-02-28T13:42:49;7.90;99.90
19342;DHT22;9807;48.258;12.690;2023-02-28T13:45:28;8.10;99.90
19342;DHT22;9807;48.258;12.690;2023-02-28T13:48:03;8.10;99.90
19342;DHT22;9807;48.258;12.690;2023-02-28T13:50:32;8.10;99.90
19342;DHT22;9807;48.258;12.690;2023-02-28T13:56:18;8.10;99.90
19342;DHT22;9807;48.258;12.690;2023-02-28T13:59:12;8.20;99.90
19342;DHT22;9807;48.258;12.690;2023-02-28T14:01:59;8.30;99.90
19342;DHT22;9807;48.258;12.690;2023-02-28T14:04:59;8.30;99.90
19342;DHT22;9807;48.258;12.690;2023-02-28T14:07:41;8.30;99.90
19342;DHT22;9807;48.258;12.690;2023-02-28T14:10:15;8.40;99.90
19342;DHT22;9807;48.258;12.690;2023-02-28T14:13:12;8.40;99.90
19342;DHT22;9807;48.258;12.690;2023-02-28T14:15:59;8.10;99.90
19342;DHT22;9807;48.258;12.690;2023-02-28T14:18:34;8.20;99.90
19342;DHT22;9807;48.258;12.690;2023-02-28T14:21:11;8.20;99.90
19342;DHT22;9807;48.258;12.690;2023-02-28T14:30:09;8.40;99.90
19342;DHT22;9807;48.258;12.690;2023-02-28T14:38:34;8.30;99.90
19342;DHT22;9807;48.258;12.690;2023-02-28T14:41:04;8.40;99.90
19342;DHT22;9807;48.258;12.690;2023-02-28T14:43:32;8.50;99.90
19342;DHT22;9807;48.258;12.690;2023-02-28T14:46:07;8.40;99.90
19342;DHT22;9807;48.258;12.690;2023-02-28T14:48:33;8.50;99.90
19342;DHT22;9807;48.258;12.690;2023-02-28T14:51:01;8.50;99.90
19342;DHT22;9807;48.258;12.690;2023-02-28T14:53:35;8.60;99.90
19342;DHT22;9807;48.258;12.690;2023-02-28T14:56:02;8.60;99.90
19342;DHT22;9807;48.258;12.690;2023-02-28T14:58:30;8.50;99.90
19342;DHT22;9807;48.258;12.690;2023-02-28T15:00:59;8.50;99.90
19342;DHT22;9807;48.258;12.690;2023-02-28T15:05:58;8.60;99.90
19342;DHT22;9807;48.258;12.690;2023-02-28T15:08:25;8.70;99.90
19342;DHT22;9807;48.258;12.690;2023-02-28T15:10:57;8.60;99.90
19342;DHT22;9807;48.258;12.690;2023-02-28T15:13:40;8.60;99.90
19342;DHT22;9807;48.258;12.690;2023-02-28T15:16:16;8.50;99.90
19342;DHT22;9807;48.258;12.690;2023-02-28T15:19:02;8.60;99.90
19342;DHT22;9807;48.258;12.690;2023-02-28T15:21:32;8.30;99.90
19342;DHT22;9807;48.258;12.690;2023-02-28T15:26:34;7.90;99.90
19342;DHT22;9807;48.258;12.690;2023-02-28T15:29:05;7.70;99.90
19342;DHT22;9807;48.258;12.690;2023-02-28T15:31:40;8.00;99.90
19342;DHT22;9807;48.258;12.690;2023-02-28T15:34:19;7.80;99.90
19342;DHT22;9807;48.258;12.690;2023-02-28T15:36:46;7.80;99.90
19342;DHT22;9807;48.258;12.690;2023-02-28T15:39:27;7.70;99.90
19342;DHT22;9807;48.258;12.690;2023-02-28T15:42:12;7.60;99.90
19342;DHT22;9807;48.258;12.690;2023-02-28T15:44:41;7.90;99.90
19342;DHT22;9807;48.258;12.690;2023-02-28T15:47:24;8.00;99.90
19342;DHT22;9807;48.258;12.690;2023-02-28T15:50:01;8.20;99.90
19342;DHT22;9807;48.258;12.690;2023-02-28T15:55:20;8.20;99.90
19342;DHT22;9807;48.258;12.690;2023-02-28T15:57:50;8.30;99.90
19342;DHT22;9807;48.258;12.690;2023-02-28T16:00:21;8.10;99.90
19342;DHT22;9807;48.258;12.690;2023-02-28T16:02:47;7.80;99.90
19342;DHT22;9807;48.258;12.690;2023-02-28T16:07:46;7.50;99.90
19342;DHT22;9807;48.258;12.690;2023-02-28T16:10:13;7.00;99.90
19342;DHT22;9807;48.258;12.690;2023-02-28T16:12:43;6.80;99.90
19342;DHT22;9807;48.258;12.690;2023-02-28T16:15:20;6.60;99.90
19342;DHT22;9807;48.258;12.690;2023-02-28T16:17:47;6.10;99.90
19342;DHT22;9807;48.258;12.690;2023-02-28T16:22:44;6.10;99.90
19342;DHT22;9807;48.258;12.690;2023-02-28T16:25:19;5.80;99.90
19342;DHT22;9807;48.258;12.690;2023-02-28T16:27:55;5.60;99.90
19342;DHT22;9807;48.258;12.690;2023-02-28T16:30:27;5.30;99.90
19342;DHT22;9807;48.258;12.690;2023-02-28T16:32:55;5.30;99.90
19342;DHT22;9807;48.258;12.690;2023-02-28T16:35:21;5.20;99.90
19342;DHT22;9807;48.258;12.690;2023-02-28T16:37:50;5.50;99.90
19342;DHT22;9807;48.258;12.690;2023-02-28T16:40:24;5.70;99.90
19342;DHT22;9807;48.258;12.690;2023-02-28T16:42:53;5.70;99.90
19342;DHT22;9807;48.258;12.690;2023-02-28T16:45:24;6.00;99.90
19342;DHT22;9807;48.258;12.690;2023-02-28T16:47:50;6.20;99.90
19342;DHT22;9807;48.258;12.690;2023-02-28T16:50:19;6.60;99.90
19342;DHT22;9807;48.258;12.690;2023-02-28T16:52:46;6.30;99.90
19342;DHT22;9807;48.258;12.690;2023-02-28T16:55:14;6.30;99.90
19342;DHT22;9807;48.258;12.690;2023-02-28T16:57:39;6.20;99.90
19342;DHT22;9807;48.258;12.690;2023-02-28T17:00:07;6.00;99.90
19342;DHT22;9807;48.258;12.690;2023-02-28T17:02:37;5.90;99.90
19342;DHT22;9807;48.258;12.690;2023-02-28T17:05:03;5.90;99.90
19342;DHT22;9807;48.258;12.690;2023-02-28T17:07:32;6.20;99.90
19342;DHT22;9807;48.258;12.690;2023-02-28T17:10:17;6.70;99.90
19342;DHT22;9807;48.258;12.690;2023-02-28T17:12:46;6.90;99.90
19342;DHT22;9807;48.258;12.690;2023-02-28T17:15:13;7.10;99.90
19342;DHT22;9807;48.258;12.690;2023-02-28T17:17:40;6.90;99.90
19342;DHT22;9807;48.258;12.690;2023-02-28T17:20:21;7.00;99.90
19342;DHT22;9807;48.258;12.690;2023-02-28T17:22:48;7.20;99.90
19342;DHT22;9807;48.258;12.690;2023-02-28T17:25:14;7.30;99.90
19342;DHT22;9807;48.258;12.690;2023-02-28T17:27:40;7.40;99.90
19342;DHT22;9807;48.258;12.690;2023-02-28T17:30:22;7.50;99.90
19342;DHT22;9807;48.258;12.690;2023-02-28T17:32:48;7.40;99.90
19342;DHT22;9807;48.258;12.690;2023-02-28T17:35:15;7.20;99.90
19342;DHT22;9807;48.258;12.690;2023-02-28T17:37:41;7.20;99.90
19342;DHT22;9807;48.258;12.690;2023-02-28T17:40:20;7.10;99.90
19342;DHT22;9807;48.258;12.690;2023-02-28T17:42:48;7.00;99.90
19342;DHT22;9807;48.258;12.690;2023-02-28T17:45:17;7.20;99.90
19342;DHT22;9807;48.258;12.690;2023-02-28T17:47:48;7.00;99.90
19342;DHT22;9807;48.258;12.690;2023-02-28T17:50:20;6.90;99.90
19342;DHT22;9807;48.258;12.690;2023-02-28T17:52:46;7.00;99.90
19342;DHT22;9807;48.258;12.690;2023-02-28T17:55:13;7.10;99.90
19342;DHT22;9807;48.258;12.690;2023-02-28T17:57:39;7.10;99.90
19342;DHT22;9807;48.258;12.690;2023-02-28T18:00:13;7.30;99.90
19342;DHT22;9807;48.258;12.690;2023-02-28T18:02:41;7.30;99.90
19342;DHT22;9807;48.258;12.690;2023-02-28T18:05:08;7.40;99.90
19342;DHT22;9807;48.258;12.690;2023-02-28T18:07:37;7.20;99.90
19342;DHT22;9807;48.258;12.690;2023-02-28T18:10:05;7.30;99.90
19342;DHT22;9807;48.258;12.690;2023-02-28T18:12:31;7.20;99.90
19342;DHT22;9807;48.258;12.690;2023-02-28T18:14:56;7.20;99.90
19342;DHT22;9807;48.258;12.690;2023-02-28T18:17:23;7.20;99.90
19342;DHT22;9807;48.258;12.690;2023-02-28T18:19:49;7.20;99.90